Pagrindinis puslapis
METAR-TAF:

METAR-TAF

Oro uostai :

Cayman Brac, Kaimanų salos

platuma: 19-41-13N, ilguma: 079-52-58W, Aukštis: 2 m

Dabartinis oras

Ataskaita buvo paskelbta 1 valandą ir 8 minutes, ne 19:00 UTC
Vėjas 9 kt iš Rytų/Pietryčių
Temperatūra 30°C
Drėgmė 75%
Slėgis 1016 hPa
Matomumas 10 km arba daugiau
Mažai debesys ne aukštis 1800 ft

METAR: MWCB 261900Z 11009KT 9999 FEW018 30/25 Q1016

Laikas: 15:08 (20:08 UTC)

Prognozė

Ataskaita buvo paskelbta 3 valandos ir 8 minutes, ne 17:00 UTC
Prognozė galioja nuo 26 metu 18 UTC su 27 metu 18 UTC
Vėjas 10 kt iš Pietų/Pietryčių
Matomumas 10 km arba daugiau
Išsisklaidę debesys ne aukštis 1800 ft

TAF: MWCB 261700Z 2618/2718 15010KT 9999 SCT018

Orai ataskaitas ir orų prognozės (METAR, TAF).

turimą stotys yra geltonos ir raudonos taškus žemėlapyje.

Perkelti pele per norėdami pamatyti stoties vardą.

Tada spustelėkite, norėdami matyti oro stebėjimo ir prognozės.

Norėdami pakeisti žemėlapį: spustelėkite ant žalios mygtukų su juodo kryžiaus žemyn,; žalią mygtuką su brūkšneliu, jei norite nutolinti; arba žalių rodyklių gretimoms žemėlapius.


METAR-TAF: